Time;durP1;ratioP1;P1;durP2;ratioP2;P2;SDS_P1;SDS_P2;PMS_P1;PMS_P2;Temp;Humidity;BMP_temperature;BMP_pressure;BME280_temperature;BME280_humidity;BME280_pressure;Samples;Min_cycle;Max_cycle;Signal;HPM_P1;HPM_P2
2021/04/05 00:00:00;;;;;;;16.05;8.63;;;17.20;54.60;;;;;;5012415;28;20041;-73
2021/04/05 00:02:26;;;;;;;14.30;8.13;;;17.10;54.50;;;;;;5011135;28;20550;-73
2021/04/05 00:04:51;;;;;;;14.55;7.60;;;17.10;54.60;;;;;;5022497;28;20085;-72
2021/04/05 00:07:17;;;;;;;15.93;8.75;;;17.10;54.70;;;;;;5013353;28;20030;-74
2021/04/05 00:09:45;;;;;;;14.82;8.57;;;17.10;54.50;;;;;;5021847;28;20034;-75
2021/04/05 00:12:10;;;;;;;16.83;8.63;;;17.10;54.70;;;;;;5011579;28;20026;-74
2021/04/05 00:14:38;;;;;;;15.77;7.85;;;17.10;54.50;;;;;;5018870;28;20481;-74
2021/04/05 00:17:04;;;;;;;15.68;8.00;;;17.00;54.50;;;;;;5027597;28;20013;-74
2021/04/05 00:19:31;;;;;;;13.80;7.97;;;17.00;54.40;;;;;;5033768;28;20112;-73
2021/04/05 00:21:57;;;;;;;12.50;7.43;;;17.00;54.50;;;;;;5014968;28;20619;-74
2021/04/05 00:24:22;;;;;;;13.13;6.93;;;17.00;54.30;;;;;;5014675;28;20113;-74
2021/04/05 00:26:48;;;;;;;13.82;7.50;;;17.00;54.50;;;;;;5014633;28;20123;-74
2021/04/05 00:29:13;;;;;;;14.02;7.88;;;17.00;54.40;;;;;;4997080;28;20485;-75
2021/04/05 00:31:39;;;;;;;14.27;7.55;;;17.00;54.50;;;;;;5014387;28;20045;-73
2021/04/05 00:34:05;;;;;;;12.80;7.38;;;17.00;54.40;;;;;;5014111;28;20026;-73
2021/04/05 00:36:30;;;;;;;13.05;7.63;;;16.90;54.40;;;;;;4996778;28;20030;-74
2021/04/05 00:38:56;;;;;;;12.95;7.15;;;16.90;54.40;;;;;;5018400;28;20021;-73
2021/04/05 00:41:22;;;;;;;15.35;7.63;;;16.90;54.20;;;;;;5015670;28;20035;-74
2021/04/05 00:43:48;;;;;;;13.45;7.55;;;16.90;54.20;;;;;;5031555;28;20033;-74
2021/04/05 00:46:23;;;;;;;14.48;7.60;;;16.90;54.40;;;;;;5028725;28;20033;-73
2021/04/05 00:48:49;;;;;;;12.55;7.28;;;16.90;54.30;;;;;;5014271;28;20599;-74
2021/04/05 00:51:21;;;;;;;13.18;7.57;;;16.90;54.30;;;;;;5032788;28;20403;-74
2021/04/05 00:53:47;;;;;;;11.05;7.00;;;16.90;54.30;;;;;;5015798;28;20116;-74
2021/04/05 00:56:15;;;;;;;12.48;7.45;;;16.90;54.20;;;;;;5014078;28;20030;-75
2021/04/05 00:58:41;;;;;;;14.20;8.05;;;16.90;54.40;;;;;;4998567;28;20040;-73
2021/04/05 01:01:10;;;;;;;12.13;7.43;;;16.80;54.20;;;;;;5016403;28;20084;-75
2021/04/05 01:03:38;;;;;;;13.02;6.93;;;16.80;54.20;;;;;;5013668;28;20077;-73
2021/04/05 01:06:10;;;;;;;13.15;7.30;;;16.80;54.20;;;;;;4996140;28;20034;-74
2021/04/05 01:08:36;;;;;;;11.63;7.15;;;16.80;54.20;;;;;;5008745;28;20408;-74
2021/04/05 01:11:02;;;;;;;12.75;7.60;;;16.80;54.20;;;;;;5015592;28;20017;-75
2021/04/05 01:13:28;;;;;;;11.38;6.90;;;16.70;54.20;;;;;;5033147;28;20017;-74
2021/04/05 01:15:54;;;;;;;12.05;7.10;;;16.70;54.30;;;;;;5033549;28;20024;-73
2021/04/05 01:18:20;;;;;;;12.85;7.38;;;16.70;54.20;;;;;;5011004;28;20083;-73
2021/04/05 01:20:46;;;;;;;11.05;7.03;;;16.70;54.30;;;;;;5032265;28;20021;-74
2021/04/05 01:23:50;;;;;;;12.63;7.65;;;16.70;54.30;;;;;;5032097;28;20030;-73
2021/04/05 01:26:16;;;;;;;11.45;6.97;;;16.70;54.20;;;;;;5030441;28;20091;-73
2021/04/05 01:28:42;;;;;;;12.35;6.68;;;16.70;54.20;;;;;;5013354;28;20489;-73
2021/04/05 01:31:07;;;;;;;11.90;7.05;;;16.60;54.20;;;;;;5013209;28;20111;-73
2021/04/05 01:33:35;;;;;;;11.35;6.80;;;16.60;54.30;;;;;;5012969;28;20032;-73
2021/04/05 01:36:10;;;;;;;10.52;6.63;;;16.60;54.30;;;;;;5013520;28;20030;-76
2021/04/05 01:38:38;;;;;;;11.20;7.32;;;16.60;54.40;;;;;;4975933;28;20034;-74
2021/04/05 01:41:20;;;;;;;11.75;7.57;;;16.60;54.40;;;;;;4975720;28;20101;-74
2021/04/05 01:43:45;;;;;;;12.05;7.15;;;16.60;54.40;;;;;;4992998;28;20561;-74
2021/04/05 01:46:13;;;;;;;10.35;6.43;;;16.50;54.40;;;;;;4993288;28;20161;-74
2021/04/05 01:48:40;;;;;;;10.50;6.97;;;16.60;54.30;;;;;;5001506;28;20034;-73
2021/04/05 01:51:10;;;;;;;10.98;7.43;;;16.60;54.40;;;;;;5012589;28;20026;-74
2021/04/05 01:53:37;;;;;;;10.68;7.35;;;16.50;54.40;;;;;;4994741;28;20374;-73
2021/04/05 01:56:04;;;;;;;11.40;7.45;;;16.50;54.40;;;;;;4995181;28;20045;-73
2021/04/05 01:58:31;;;;;;;12.68;7.15;;;16.50;54.50;;;;;;5012822;28;20083;-76
2021/04/05 02:00:57;;;;;;;12.02;6.95;;;16.50;54.40;;;;;;5012804;28;20018;-74
2021/04/05 02:03:26;;;;;;;10.52;6.82;;;16.50;54.60;;;;;;5012526;28;20389;-74
2021/04/05 02:05:56;;;;;;;11.82;7.13;;;16.50;54.40;;;;;;5032276;28;20036;-74
2021/04/05 02:08:23;;;;;;;11.00;7.30;;;16.50;54.60;;;;;;5030333;28;20024;-73
2021/04/05 02:10:51;;;;;;;9.90;6.70;;;16.50;54.50;;;;;;5032269;28;20030;-73
2021/04/05 02:13:23;;;;;;;10.95;7.30;;;16.50;55.10;;;;;;5014017;28;20053;-74
2021/04/05 02:15:53;;;;;;;11.15;7.03;;;16.50;54.60;;;;;;5016048;28;20041;-73
2021/04/05 02:18:21;;;;;;;11.95;7.65;;;16.50;54.50;;;;;;5013676;28;20022;-73
2021/04/05 02:20:48;;;;;;;9.68;6.60;;;16.50;54.40;;;;;;5012289;28;20025;-74
2021/04/05 02:23:14;;;;;;;9.82;7.15;;;16.50;54.50;;;;;;4994410;28;20133;-74
2021/04/05 02:28:28;;;;;;;10.73;7.10;;;16.40;54.40;;;;;;5012330;28;20079;-74
2021/04/05 02:30:55;;;;;;;12.88;7.10;;;16.40;54.40;;;;;;4994585;28;20088;-74
2021/04/05 02:33:20;;;;;;;10.90;7.03;;;16.40;54.40;;;;;;4996814;28;20117;-74
2021/04/05 02:35:46;;;;;;;10.45;7.43;;;16.40;54.50;;;;;;5013562;28;20121;-74
2021/04/05 02:38:12;;;;;;;11.73;7.30;;;16.40;54.40;;;;;;5030247;28;20025;-73
2021/04/05 02:40:38;;;;;;;11.20;7.13;;;16.40;54.60;;;;;;5031098;28;20034;-74
2021/04/05 02:43:04;;;;;;;10.75;7.20;;;16.40;54.50;;;;;;5031567;28;20029;-74
2021/04/05 02:45:30;;;;;;;11.52;7.22;;;16.40;54.40;;;;;;5029927;28;20034;-74
2021/04/05 02:47:59;;;;;;;13.52;6.85;;;16.40;54.40;;;;;;5022918;28;20044;-74
2021/04/05 02:50:29;;;;;;;11.75;7.15;;;16.30;54.60;;;;;;5031025;28;20018;-74
2021/04/05 02:52:58;;;;;;;14.45;7.00;;;16.30;54.60;;;;;;5031382;28;20544;-74
2021/04/05 02:55:24;;;;;;;11.68;7.20;;;16.30;54.60;;;;;;5031643;28;20029;-74
2021/04/05 02:57:51;;;;;;;11.43;6.72;;;16.30;54.60;;;;;;5013767;28;20452;-74
2021/04/05 03:00:19;;;;;;;11.10;6.53;;;16.30;54.70;;;;;;5030387;28;20400;-74
2021/04/05 03:02:48;;;;;;;11.38;6.70;;;16.30;54.70;;;;;;5031505;28;20389;-73
2021/04/05 03:05:18;;;;;;;11.13;7.20;;;16.30;54.70;;;;;;5011050;28;20029;-73
2021/04/05 03:07:44;;;;;;;11.27;7.10;;;16.30;54.60;;;;;;5012859;28;20033;-74
2021/04/05 03:10:11;;;;;;;10.48;6.85;;;16.30;54.70;;;;;;5011687;28;20400;-73
2021/04/05 03:12:39;;;;;;;11.43;6.82;;;16.30;54.80;;;;;;5011325;28;20056;-73
2021/04/05 03:15:13;;;;;;;10.38;6.68;;;16.30;54.70;;;;;;4994253;28;20029;-73
2021/04/05 03:17:39;;;;;;;9.50;6.45;;;16.30;54.70;;;;;;4995115;28;20022;-74
2021/04/05 03:20:28;;;;;;;9.88;6.75;;;16.30;54.80;;;;;;5011634;28;20396;-74
2021/04/05 03:22:53;;;;;;;10.25;6.30;;;16.20;54.80;;;;;;5012427;28;20091;-73
2021/04/05 03:25:21;;;;;;;10.40;6.93;;;16.30;54.80;;;;;;5031412;28;20473;-74
2021/04/05 03:27:48;;;;;;;11.35;6.90;;;16.20;54.80;;;;;;5013722;28;20496;-74
2021/04/05 03:30:20;;;;;;;10.90;6.50;;;16.30;54.90;;;;;;5013520;28;20036;-71
2021/04/05 03:32:50;;;;;;;12.10;7.10;;;16.20;54.80;;;;;;5029317;28;20030;-73
2021/04/05 03:35:20;;;;;;;9.43;6.55;;;16.20;54.70;;;;;;4991762;28;20029;-73
2021/04/05 03:37:47;;;;;;;11.20;6.53;;;16.20;54.80;;;;;;4974577;28;20023;-74
2021/04/05 03:40:14;;;;;;;9.48;6.32;;;16.20;54.80;;;;;;4974376;28;20480;-74
2021/04/05 03:42:47;;;;;;;11.20;6.88;;;16.20;54.80;;;;;;4999050;28;20439;-74
2021/04/05 03:45:26;;;;;;;10.35;6.50;;;16.20;54.70;;;;;;5031170;28;20068;-73
2021/04/05 03:48:04;;;;;;;10.55;6.30;;;16.20;54.60;;;;;;5031312;28;20022;-74
2021/04/05 03:50:39;;;;;;;10.77;6.47;;;16.20;54.70;;;;;;5013515;28;20021;-73
2021/04/05 03:53:12;;;;;;;10.80;6.43;;;16.20;54.70;;;;;;5020416;28;20025;-74
2021/04/05 03:55:40;;;;;;;11.68;6.50;;;16.20;54.70;;;;;;5034943;28;20025;-74
2021/04/05 03:58:09;;;;;;;11.20;6.72;;;16.20;54.70;;;;;;5034960;28;20018;-73
2021/04/05 04:00:36;;;;;;;9.82;6.60;;;16.20;54.70;;;;;;5031250;28;20030;-73
2021/04/05 04:03:05;;;;;;;9.57;6.40;;;16.20;54.70;;;;;;5017466;28;20030;-73
2021/04/05 04:05:43;;;;;;;9.25;6.20;;;16.20;54.60;;;;;;5014980;28;20029;-73
2021/04/05 04:08:26;;;;;;;10.55;6.35;;;16.20;54.70;;;;;;5015062;28;20504;-74
2021/04/05 04:10:54;;;;;;;9.43;5.55;;;16.20;54.70;;;;;;5015247;28;20030;-73
2021/04/05 04:13:22;;;;;;;9.48;6.18;;;16.20;55.20;;;;;;5014533;28;20037;-72
2021/04/05 04:15:52;;;;;;;9.70;6.60;;;16.20;54.70;;;;;;4998168;28;20428;-73
2021/04/05 04:18:18;;;;;;;10.35;6.07;;;16.20;54.70;;;;;;5015636;28;20429;-73
2021/04/05 04:20:45;;;;;;;10.93;6.03;;;16.10;54.70;;;;;;4996958;28;20389;-73
2021/04/05 04:23:13;;;;;;;11.25;6.70;;;16.10;54.70;;;;;;5014226;28;20037;-72
2021/04/05 04:25:39;;;;;;;9.50;6.35;;;16.10;54.70;;;;;;5014549;28;20156;-73
2021/04/05 04:28:05;;;;;;;10.05;5.85;;;16.10;54.60;;;;;;5014750;28;20101;-73
2021/04/05 04:30:31;;;;;;;10.40;6.40;;;16.10;54.60;;;;;;5014362;28;20042;-73
2021/04/05 04:32:59;;;;;;;10.38;5.70;;;16.20;54.60;;;;;;4996371;28;20033;-73
2021/04/05 04:35:24;;;;;;;10.23;6.03;;;16.10;54.60;;;;;;5013870;28;20022;-73
2021/04/05 04:37:51;;;;;;;9.32;6.13;;;16.20;54.60;;;;;;5015051;28;20030;-74
2021/04/05 04:40:23;;;;;;;9.15;6.00;;;16.10;54.60;;;;;;5033586;28;20037;-73
2021/04/05 04:42:48;;;;;;;;;;;16.10;54.60;;;;;;5032865;28;20484;-73
2021/04/05 04:45:15;;;;;;;9.60;5.97;;;16.10;54.60;;;;;;5034003;28;20038;-72
2021/04/05 04:47:41;;;;;;;12.65;5.90;;;16.10;54.50;;;;;;5033365;28;20083;-73
2021/04/05 04:50:07;;;;;;;8.07;5.47;;;16.10;54.50;;;;;;5014842;28;20026;-72
2021/04/05 04:52:32;;;;;;;9.27;5.93;;;16.10;54.50;;;;;;4995954;28;20026;-73
2021/04/05 04:54:58;;;;;;;8.70;5.70;;;16.10;54.50;;;;;;5014031;28;20362;-70
2021/04/05 04:57:23;;;;;;;10.75;6.07;;;16.10;54.50;;;;;;5013904;28;20026;-73
2021/04/05 04:59:49;;;;;;;9.65;5.47;;;16.10;54.50;;;;;;5013894;28;20026;-74
2021/04/05 05:02:15;;;;;;;9.77;5.38;;;16.10;54.50;;;;;;5012878;28;20030;-73
2021/04/05 05:04:41;;;;;;;9.73;5.40;;;16.10;54.60;;;;;;4996216;28;20512;-73
2021/04/05 05:07:08;;;;;;;10.38;5.93;;;16.10;54.60;;;;;;5013900;28;20033;-73
2021/04/05 05:09:34;;;;;;;10.85;5.70;;;16.10;54.60;;;;;;5013758;28;20025;-72
2021/04/05 05:12:00;;;;;;;10.95;5.72;;;16.10;54.60;;;;;;5013744;28;20040;-73
2021/04/05 05:14:26;;;;;;;10.07;5.50;;;16.10;54.60;;;;;;5024387;28;20037;-74
2021/04/05 05:16:53;;;;;;;10.65;6.00;;;16.10;54.60;;;;;;5033451;28;20071;-74
2021/04/05 05:19:20;;;;;;;10.90;5.82;;;16.10;54.60;;;;;;5015629;28;20029;-73
2021/04/05 05:21:50;;;;;;;9.25;5.47;;;16.10;54.50;;;;;;5014783;28;20033;-73
2021/04/05 05:24:19;;;;;;;8.98;5.53;;;16.10;54.40;;;;;;5030181;28;20440;-73
2021/04/05 05:26:45;;;;;;;9.75;5.55;;;16.10;54.50;;;;;;5006129;28;20030;-73
2021/04/05 05:29:13;;;;;;;9.63;5.85;;;16.10;54.50;;;;;;5013464;28;20116;-73
2021/04/05 05:31:41;;;;;;;8.85;5.47;;;16.10;54.60;;;;;;4995789;28;20026;-73
2021/04/05 05:34:08;;;;;;;9.38;5.15;;;16.00;54.60;;;;;;4995748;28;20069;-73
2021/04/05 05:36:35;;;;;;;10.10;5.28;;;16.00;54.60;;;;;;5006450;28;20029;-73
2021/04/05 05:39:01;;;;;;;9.30;5.22;;;16.00;54.70;;;;;;4993621;28;20461;-72
2021/04/05 05:41:54;;;;;;;10.20;5.25;;;16.00;54.70;;;;;;4993488;28;20113;-73
2021/04/05 05:44:45;;;;;;;9.50;5.22;;;16.00;54.80;;;;;;4975978;28;20109;-74
2021/04/05 05:47:22;;;;;;;8.25;5.45;;;16.00;54.80;;;;;;4999329;28;20401;-74
2021/04/05 05:49:49;;;;;;;9.30;5.43;;;16.00;54.80;;;;;;5014098;28;20091;-71
2021/04/05 05:52:58;;;;;;;9.65;5.40;;;16.00;54.70;;;;;;5012752;28;20029;-73
2021/04/05 05:55:42;;;;;;;8.25;5.03;;;16.00;54.80;;;;;;4952516;29;20027;-73
2021/04/05 05:58:16;;;;;;;9.30;4.82;;;16.00;54.70;;;;;;5006757;28;20116;-74
2021/04/05 06:01:01;;;;;;;9.48;4.97;;;16.00;54.70;;;;;;5032516;28;20177;-73
2021/04/05 06:03:34;;;;;;;8.80;5.97;;;16.00;54.80;;;;;;5014661;28;20568;-73
2021/04/05 06:06:13;;;;;;;8.85;5.32;;;16.00;54.80;;;;;;5032608;28;20057;-74
2021/04/05 06:09:15;;;;;;;8.15;5.10;;;16.00;54.80;;;;;;5015395;28;20529;-76
2021/04/05 06:12:21;;;;;;;8.77;5.20;;;15.90;54.80;;;;;;4995070;28;20543;-73
2021/04/05 06:15:13;;;;;;;10.65;5.75;;;15.90;54.80;;;;;;5011902;28;20021;-73
2021/04/05 06:18:03;;;;;;;10.27;5.05;;;15.90;54.80;;;;;;5013726;28;20505;-75
2021/04/05 06:20:29;;;;;;;8.40;4.57;;;15.90;54.80;;;;;;5011777;28;20105;-74
2021/04/05 06:23:29;;;;;;;8.27;5.13;;;16.00;54.90;;;;;;4994662;28;20482;-73
2021/04/05 06:26:11;;;;;;;10.77;5.30;;;15.90;54.90;;;;;;5016838;28;20029;-73
2021/04/05 06:28:56;;;;;;;9.63;5.65;;;15.90;54.90;;;;;;5011292;28;20092;-73
2021/04/05 06:31:59;;;;;;;8.73;5.07;;;15.90;54.90;;;;;;5009224;28;20052;-73
2021/04/05 06:34:35;;;;;;;8.30;5.05;;;15.90;55.00;;;;;;5005471;28;20972;-72
2021/04/05 06:37:22;;;;;;;8.63;4.80;;;15.90;55.00;;;;;;5010449;28;20092;-74
2021/04/05 06:39:57;;;;;;;10.48;5.70;;;15.90;55.00;;;;;;5011289;28;20026;-73
2021/04/05 06:42:25;;;;;;;8.70;4.93;;;15.90;55.00;;;;;;5010722;28;20033;-74
2021/04/05 06:45:03;;;;;;;8.30;4.88;;;15.90;55.00;;;;;;4993502;28;20037;-74
2021/04/05 06:47:41;;;;;;;9.77;4.75;;;15.90;55.00;;;;;;4994151;28;20137;-72
2021/04/05 06:50:26;;;;;;;9.15;5.10;;;15.90;55.00;;;;;;5011143;28;20017;-73
2021/04/05 06:53:21;;;;;;;9.52;5.05;;;15.90;55.00;;;;;;5010983;28;20030;-74
2021/04/05 06:55:51;;;;;;;10.77;5.25;;;15.90;55.10;;;;;;4993810;28;20022;-73
2021/04/05 06:58:25;;;;;;;10.45;5.40;;;15.90;55.10;;;;;;4992573;28;20025;-73
2021/04/05 07:01:19;;;;;;;9.55;5.32;;;15.90;55.00;;;;;;4993626;28;20023;-73
2021/04/05 07:03:56;;;;;;;9.40;5.07;;;16.00;55.10;;;;;;4993487;28;20433;-74
2021/04/05 07:06:53;;;;;;;8.32;5.25;;;15.90;55.10;;;;;;4993642;28;20033;-74
2021/04/05 07:09:45;;;;;;;11.15;5.25;;;16.00;55.20;;;;;;5012026;28;20489;-76
2021/04/05 07:12:42;;;;;;;11.40;5.50;;;16.00;55.70;;;;;;5011187;28;20041;-76
2021/04/05 07:15:32;;;;;;;8.73;5.47;;;16.00;55.70;;;;;;5013279;28;20109;-75
2021/04/05 07:18:20;;;;;;;11.30;5.50;;;16.00;55.80;;;;;;5025600;28;20037;-73
2021/04/05 07:21:23;;;;;;;236.32;208.23;;;15.90;55.60;;;;;;4991829;28;20025;-77
2021/04/05 07:24:26;;;;;;;115.85;103.70;;;15.90;55.30;;;;;;5009728;28;20105;-76
2021/04/05 07:27:01;;;;;;;74.95;60.55;;;16.00;55.30;;;;;;5014639;28;20033;-76
2021/04/05 07:29:41;;;;;;;34.28;27.88;;;16.10;55.20;;;;;;5015390;28;20105;-76
2021/04/05 07:32:29;;;;;;;25.13;17.38;;;16.10;55.00;;;;;;4997182;28;20026;-76
2021/04/05 07:35:15;;;;;;;19.90;15.07;;;16.20;55.00;;;;;;5014541;28;20026;-76
2021/04/05 07:37:57;;;;;;;19.80;15.70;;;16.30;54.90;;;;;;5014984;28;20164;-76
2021/04/05 07:40:36;;;;;;;20.10;14.45;;;16.40;54.50;;;;;;4996669;28;20475;-75
2021/04/05 07:43:06;;;;;;;17.25;13.70;;;16.60;53.80;;;;;;4996651;28;20429;-75
2021/04/05 07:45:32;;;;;;;17.03;10.80;;;16.70;53.40;;;;;;4997175;28;20083;-76
2021/04/05 07:48:39;;;;;;;16.67;11.40;;;16.90;52.90;;;;;;4996856;28;20447;-75
2021/04/05 07:51:22;;;;;;;15.23;11.25;;;17.00;52.70;;;;;;4935086;29;20195;-76
2021/04/05 07:53:51;;;;;;;15.75;9.00;;;17.20;52.40;;;;;;4934090;29;20661;-73
2021/04/05 07:56:27;;;;;;;15.02;9.48;;;17.20;52.40;;;;;;4982654;28;20052;-76
2021/04/05 07:59:22;;;;;;;15.93;10.90;;;17.20;53.10;;;;;;4997548;28;20547;-76
2021/04/05 08:02:01;;;;;;;18.13;8.50;;;17.30;52.60;;;;;;5001162;28;20060;-75
2021/04/05 08:04:38;;;;;;;13.65;9.20;;;17.60;52.10;;;;;;5012160;28;20041;-75
2021/04/05 08:07:27;;;;;;;15.05;8.52;;;18.10;51.10;;;;;;5010723;28;20105;-75
2021/04/05 08:10:18;;;;;;;16.77;9.35;;;18.70;50.00;;;;;;5027707;28;20036;-75
2021/04/05 08:13:02;;;;;;;;;;;18.90;48.90;;;;;;4995133;28;20384;-76
2021/04/05 08:15:50;;;;;;;16.25;8.35;;;18.70;49.00;;;;;;5013502;28;19959;-76
2021/04/05 08:18:37;;;;;;;14.95;8.68;;;18.50;49.80;;;;;;5013970;28;20049;-74
2021/04/05 08:21:18;;;;;;;16.48;8.50;;;18.30;50.40;;;;;;4996932;28;20033;-78
2021/04/05 08:26:27;;;;;;;13.95;5.70;;;18.00;51.00;;;;;;5053101;23;20478;-74
2021/04/05 08:29:02;;;;;;;9.45;4.68;;;17.90;50.90;;;;;;5014859;28;20033;-74
2021/04/05 08:31:31;;;;;;;15.18;7.30;;;17.80;50.60;;;;;;5009359;28;20033;-76
2021/04/05 08:34:34;;;;;;;27.55;14.50;;;17.80;50.50;;;;;;5013141;28;20033;-75
2021/04/05 08:37:18;;;;;;;42.47;18.73;;;18.00;51.20;;;;;;4997144;28;20042;-77
2021/04/05 08:40:00;;;;;;;30.83;21.38;;;18.20;51.10;;;;;;5015331;28;20034;-77
2021/04/05 08:42:29;;;;;;;26.58;17.55;;;18.20;51.10;;;;;;5022543;28;20080;-77
2021/04/05 08:45:06;;;;;;;23.40;14.40;;;18.30;50.50;;;;;;4995732;28;20044;-75
2021/04/05 08:47:32;;;;;;;21.83;13.52;;;18.40;50.50;;;;;;5032220;28;20030;-77
2021/04/05 08:50:04;;;;;;;20.15;11.95;;;18.40;50.50;;;;;;5026928;28;20028;-74
2021/04/05 08:52:35;;;;;;;16.55;10.52;;;18.50;50.20;;;;;;5035614;28;20067;-75
2021/04/05 08:55:02;;;;;;;19.63;9.70;;;18.40;50.10;;;;;;5041890;28;20112;-75
2021/04/05 08:57:33;;;;;;;19.27;9.32;;;18.40;50.10;;;;;;5017492;28;20113;-74
2021/04/05 09:00:09;;;;;;;14.70;8.18;;;18.40;50.20;;;;;;5016709;28;20029;-73
2021/04/05 09:02:40;;;;;;;15.60;8.43;;;18.40;50.20;;;;;;5022394;28;20029;-74
2021/04/05 09:05:12;;;;;;;11.53;7.00;;;18.40;50.40;;;;;;5017113;28;20022;-73
2021/04/05 09:07:38;;;;;;;16.15;7.55;;;18.30;50.40;;;;;;5023951;28;20358;-74
2021/04/05 09:10:06;;;;;;;16.17;6.78;;;18.30;50.60;;;;;;5028596;28;20117;-75
2021/04/05 09:12:36;;;;;;;13.77;7.10;;;18.30;50.50;;;;;;5028860;28;20025;-74
2021/04/05 09:15:21;;;;;;;12.43;5.78;;;18.30;50.60;;;;;;5034419;28;20459;-76
2021/04/05 09:17:57;;;;;;;10.45;5.13;;;18.20;50.70;;;;;;5024250;28;20021;-77
2021/04/05 09:21:06;;;;;;;10.57;5.75;;;18.30;50.80;;;;;;5038765;28;20025;-75
2021/04/05 09:23:56;;;;;;;11.38;5.38;;;18.20;50.80;;;;;;5003341;28;20535;-77
2021/04/05 09:26:43;;;;;;;9.98;4.82;;;18.20;50.90;;;;;;5031083;28;20439;-76
2021/04/05 09:29:42;;;;;;;10.82;4.97;;;18.20;51.00;;;;;;5013070;28;20048;-77
2021/04/05 09:32:36;;;;;;;8.35;4.15;;;18.20;51.10;;;;;;5032470;28;20024;-77
2021/04/05 09:35:07;;;;;;;10.07;4.28;;;18.20;51.20;;;;;;5024941;28;20017;-76
2021/04/05 09:38:05;;;;;;;9.85;3.95;;;18.20;51.20;;;;;;5027212;28;20053;-76
2021/04/05 09:40:47;;;;;;;7.85;3.78;;;18.30;51.00;;;;;;5044809;28;20108;-75
2021/04/05 09:43:34;;;;;;;8.65;3.70;;;18.40;50.60;;;;;;5026382;28;20025;-75
2021/04/05 09:46:29;;;;;;;9.13;3.35;;;18.50;50.30;;;;;;5027174;28;20048;-78
2021/04/05 09:49:32;;;;;;;8.85;3.00;;;18.60;50.10;;;;;;5017954;28;20025;-77
2021/04/05 09:52:04;;;;;;;7.53;3.00;;;18.60;50.10;;;;;;5023478;28;20614;-78
2021/04/05 09:54:43;;;;;;;8.05;3.05;;;18.70;50.30;;;;;;5037919;28;20488;-77
2021/04/05 09:57:23;;;;;;;10.32;3.00;;;18.60;50.00;;;;;;5030480;28;20053;-78
2021/04/05 09:59:52;;;;;;;45.03;19.65;;;18.60;50.30;;;;;;5010940;28;20037;-76
2021/04/05 10:02:48;;;;;;;79.00;34.25;;;18.60;50.50;;;;;;5023173;28;20036;-72
2021/04/05 10:05:15;;;;;;;109.78;57.67;;;18.70;52.00;;;;;;5003461;28;20095;-73
2021/04/05 10:07:44;;;;;;;109.85;54.47;;;18.80;51.30;;;;;;5001024;28;20164;-76
2021/04/05 10:10:12;;;;;;;98.78;51.17;;;18.80;51.70;;;;;;4997975;28;20523;-74
2021/04/05 10:12:38;;;;;;;102.93;55.47;;;18.80;51.30;;;;;;5014822;28;20030;-75
2021/04/05 10:15:05;;;;;;;86.70;47.35;;;18.80;51.40;;;;;;5015287;28;20037;-74
2021/04/05 10:17:32;;;;;;;82.32;43.15;;;18.80;51.40;;;;;;5014431;28;20029;-76
2021/04/05 10:20:05;;;;;;;71.00;38.40;;;18.80;51.30;;;;;;5020779;28;20022;-75
2021/04/05 10:22:42;;;;;;;60.15;33.72;;;18.90;51.20;;;;;;4996244;28;20575;-78
2021/04/05 10:25:09;;;;;;;57.85;30.30;;;19.00;50.90;;;;;;4996918;28;20073;-75
2021/04/05 10:27:35;;;;;;;53.40;28.15;;;19.00;51.00;;;;;;4994998;28;20040;-75
2021/04/05 10:30:03;;;;;;;54.10;29.58;;;19.00;50.80;;;;;;4995039;28;20405;-77
2021/04/05 10:32:29;;;;;;;51.65;27.38;;;19.00;51.20;;;;;;4997364;28;21137;-76
2021/04/05 10:34:58;;;;;;;44.08;23.75;;;19.00;51.20;;;;;;5006330;28;20040;-75
2021/04/05 10:37:44;;;;;;;38.95;21.05;;;19.00;51.10;;;;;;5024957;28;20028;-74
2021/04/05 10:40:17;;;;;;;39.58;19.33;;;18.90;51.00;;;;;;5014945;28;20411;-77
2021/04/05 10:42:48;;;;;;;33.38;15.73;;;18.90;50.90;;;;;;5013762;28;20449;-75
2021/04/05 10:45:27;;;;;;;37.05;16.27;;;18.90;50.80;;;;;;5024091;28;20528;-74
2021/04/05 10:48:05;;;;;;;44.50;14.05;;;18.90;51.40;;;;;;5008787;28;20053;-74
2021/04/05 10:50:36;;;;;;;35.72;13.63;;;19.00;50.60;;;;;;4993781;28;20032;-76
2021/04/05 10:53:09;;;;;;;43.90;12.55;;;19.00;50.50;;;;;;5025536;28;20033;-75
2021/04/05 10:55:40;;;;;;;47.13;12.98;;;19.00;50.60;;;;;;5008971;28;20136;-74
2021/04/05 10:58:10;;;;;;;49.10;11.70;;;19.10;50.30;;;;;;5016455;28;20392;-75
2021/04/05 11:00:41;;;;;;;36.65;10.10;;;19.20;50.40;;;;;;5026788;28;20018;-75
2021/04/05 11:03:21;;;;;;;38.03;9.82;;;19.20;50.20;;;;;;5028197;28;20041;-75
2021/04/05 11:05:50;;;;;;;45.40;8.52;;;19.20;50.40;;;;;;5005306;28;20053;-76
2021/04/05 11:08:19;;;;;;;36.40;7.68;;;19.20;50.00;;;;;;5002443;28;20038;-75
2021/04/05 11:10:46;;;;;;;43.55;7.93;;;19.20;49.70;;;;;;5000135;28;20079;-74
2021/04/05 11:13:14;;;;;;;54.00;8.43;;;19.20;49.30;;;;;;5025708;28;20030;-75
2021/04/05 11:15:42;;;;;;;33.55;5.63;;;19.10;47.90;;;;;;4994511;28;20436;-75
2021/04/05 11:18:11;;;;;;;30.85;4.90;;;19.10;48.60;;;;;;5012834;28;20021;-74
2021/04/05 11:20:40;;;;;;;22.17;4.18;;;19.00;48.90;;;;;;5016255;28;20528;-75
2021/04/05 11:23:12;;;;;;;23.98;4.97;;;19.00;49.10;;;;;;5011769;28;20026;-75
2021/04/05 11:25:40;;;;;;;;;;;18.90;49.10;;;;;;5017665;28;20057;-72
2021/04/05 11:28:23;;;;;;;31.20;4.97;;;18.80;49.10;;;;;;5036443;28;19909;-73
2021/04/05 11:30:56;;;;;;;22.23;4.20;;;18.80;49.00;;;;;;5022778;28;20028;-75
2021/04/05 11:33:26;;;;;;;24.58;5.63;;;18.80;49.10;;;;;;5029113;28;20033;-77
2021/04/05 11:35:54;;;;;;;21.27;3.60;;;18.80;49.50;;;;;;5029620;28;20104;-76
2021/04/05 11:38:21;;;;;;;18.10;3.83;;;18.80;48.50;;;;;;5018414;28;20488;-73
2021/04/05 11:40:49;;;;;;;22.08;4.15;;;18.80;48.70;;;;;;5029450;28;20049;-76
2021/04/05 11:43:20;;;;;;;22.88;3.75;;;18.80;48.70;;;;;;5019869;28;20033;-74
2021/04/05 11:45:59;;;;;;;28.80;4.03;;;18.80;48.20;;;;;;5030573;28;20030;-73
2021/04/05 11:48:27;;;;;;;29.23;4.68;;;19.00;48.60;;;;;;5044769;28;20051;-73
2021/04/05 11:50:53;;;;;;;13.07;2.35;;;19.10;48.80;;;;;;5020645;28;20060;-74
2021/04/05 11:53:47;;;;;;;15.63;2.28;;;19.10;48.80;;;;;;5037099;28;20033;-73
2021/04/05 11:56:20;;;;;;;14.52;2.22;;;18.90;48.00;;;;;;5048741;28;20846;-74
2021/04/05 11:59:03;;;;;;;13.27;3.10;;;19.00;48.10;;;;;;5019785;28;20048;-72
2021/04/05 12:01:36;;;;;;;12.77;2.13;;;18.90;47.70;;;;;;5050004;28;20021;-74
2021/04/05 12:04:13;;;;;;;14.23;1.92;;;19.00;48.00;;;;;;5049595;28;20499;-72
2021/04/05 12:06:42;;;;;;;10.25;1.70;;;19.00;47.90;;;;;;5049800;28;20048;-73
2021/04/05 12:09:21;;;;;;;7.75;1.70;;;19.20;47.30;;;;;;5042866;28;20021;-72
2021/04/05 12:11:55;;;;;;;8.82;1.73;;;19.50;46.70;;;;;;5024622;28;20493;-77
2021/04/05 12:14:26;;;;;;;14.63;2.13;;;19.60;46.30;;;;;;5045065;28;20078;-72
2021/04/05 12:16:54;;;;;;;20.88;2.50;;;19.80;46.40;;;;;;5036687;28;20033;-74
2021/04/05 12:19:33;;;;;;;13.23;1.73;;;19.80;46.40;;;;;;5029600;28;20024;-72
2021/04/05 12:22:00;;;;;;;7.85;1.45;;;19.90;46.40;;;;;;5016199;28;20072;-74
2021/04/05 12:24:32;;;;;;;8.40;1.40;;;19.90;46.00;;;;;;5033945;28;20040;-72
2021/04/05 12:27:05;;;;;;;9.65;1.55;;;19.90;45.80;;;;;;5038541;28;20060;-73
2021/04/05 12:29:32;;;;;;;7.65;1.52;;;19.70;46.10;;;;;;5033928;28;20102;-73
2021/04/05 12:32:00;;;;;;;9.52;1.38;;;19.60;46.30;;;;;;5019979;28;20092;-73
2021/04/05 12:34:30;;;;;;;10.77;1.63;;;19.60;46.60;;;;;;5013512;28;20038;-73
2021/04/05 12:36:58;;;;;;;12.68;2.13;;;19.60;46.30;;;;;;4996740;28;20114;-73
2021/04/05 12:39:30;;;;;;;13.82;2.05;;;19.50;45.60;;;;;;4996736;28;20508;-73
2021/04/05 12:41:56;;;;;;;7.07;1.45;;;19.20;46.20;;;;;;5014348;28;20018;-73
2021/04/05 12:44:30;;;;;;;11.20;1.73;;;19.00;47.40;;;;;;5010879;28;20104;-73
2021/04/05 12:46:58;;;;;;;11.82;1.35;;;18.90;46.90;;;;;;5001752;28;20032;-71
2021/04/05 12:49:27;;;;;;;6.55;1.30;;;18.80;48.20;;;;;;5036480;28;20489;-72
2021/04/05 12:51:54;;;;;;;8.05;1.00;;;18.70;48.20;;;;;;5042883;28;20025;-74
2021/04/05 12:54:23;;;;;;;6.97;1.23;;;18.90;48.00;;;;;;5045688;28;20028;-73
2021/04/05 12:56:51;;;;;;;6.75;1.20;;;19.00;47.30;;;;;;5033738;28;20485;-75
2021/04/05 12:59:24;;;;;;;8.23;1.45;;;19.10;46.90;;;;;;5046428;28;20021;-74
2021/04/05 13:01:53;;;;;;;5.15;1.20;;;19.20;46.00;;;;;;5052321;28;20017;-73
2021/04/05 13:04:25;;;;;;;6.38;1.10;;;19.30;45.30;;;;;;5040823;28;20106;-73
2021/04/05 13:06:59;;;;;;;13.93;1.50;;;19.40;46.20;;;;;;5033763;28;20025;-76
2021/04/05 13:09:31;;;;;;;11.85;1.52;;;19.40;45.90;;;;;;5006792;28;20523;-75
2021/04/05 13:12:08;;;;;;;70.57;27.77;;;19.30;45.80;;;;;;5053829;28;20025;-73
2021/04/05 13:14:36;;;;;;;50.40;22.20;;;19.20;46.10;;;;;;5052608;28;20037;-74